Terminal Aerodrome Forecast
Issued by NWS

Home | Current Version | Previous Version | Graphics & Text | Print | Product List | Glossary On
Versions: 1 2 3 4 5 6 7 8 9 10 11 12 13 14 15 16 17 18 19 20 21
000
FTUS43 KGRB 230500
TAFAUW
TAF
KAUW 230520Z 2306/2406 09009KT 3SM -SN BR SCT004 OVC008
      TEMPO 2306/2310 1SM -DZSN BKN004
     FM231000 08009KT 2SM -SN BR OVC006
      TEMPO 2310/2312 1SM -DZSN BKN003
     FM231200 08009KT 1SM -SN BR OVC006
     FM231700 06009KT 2SM -SNDZ BR OVC003
     FM232300 04005KT 3SM BR OVC005=

USA.gov is the U.S. government's official web portal to all federal, state and local government web resources and services.